Current Conditions
Clear
Conditions



Pressure
1015.92 (hPa) - 30 (inHG)
Visibility

10.0 (km) - 6.2 (miles)
   Temperature
17  °C
63°F
2  °C
Dewpoint
37  %
 Humidity
   Wind Speed
23  km/h
12  kts
14  mph
6.3  m/s
   Wind Direction
 120°
East South
East
   Airport Data
EHAM
Location Amsterdam Schiphol 25 km (15.54 mi)
Metar :EHAM 051755Z 12012KT CAVOK 17/02 Q1016 NOSIG
Sun 5th April 18:55 pm
   Raw Metar Info
Raw METAR is the most common format in the world for the transmission of observational weather data. It is highly standardized through the International Civil Aviation Organization (ICAO), which allows it to be understood throughout most of the world.
   API Info
Data Provided by
https://www.checkwx.com/weather/EHAM
   © Info
CSS/SVG/PHP scripts were developed by weather34.com for use in the weather34 template © 2015-2020

Guide Info provided by Metar-Wikipedia